METAR Data
IDs: Format: Raw Decoded Include TAF

Data at: 1624 UTC 04 Aug 2021

EDTY 041550Z VRB03KT 9999 FEW038 19/11 Q1013